Time;durP1;ratioP1;P1;durP2;ratioP2;P2;SDS_P1;SDS_P2;PMS_P1;PMS_P2;Temp;Humidity;BMP_temperature;BMP_pressure;BME280_temperature;BME280_humidity;BME280_pressure;Samples;Min_cycle;Max_cycle;Signal;HPM_P1;HPM_P2
2023/08/05 00:00:39;;;;;;;6.60;4.07;;;;;;;14.23;100.00;95660.53;2066470;28;20049;-59
2023/08/05 00:01:40;;;;;;;6.85;4.22;;;;;;;14.16;100.00;95665.31;2066043;28;20401;-59
2023/08/05 00:02:44;;;;;;;6.60;4.20;;;;;;;14.20;100.00;95668.56;2065456;28;20574;-60
2023/08/05 00:03:46;;;;;;;8.98;4.20;;;;;;;14.21;100.00;95672.84;2066344;28;20045;-59
2023/08/05 00:04:47;;;;;;;5.57;3.97;;;;;;;14.20;100.00;95669.41;2066383;28;20367;-59
2023/08/05 00:05:52;;;;;;;7.00;3.95;;;;;;;14.21;100.00;95665.84;2066302;28;20406;-59
2023/08/05 00:06:53;;;;;;;6.68;3.47;;;;;;;14.20;100.00;95666.78;2065139;28;20057;-59
2023/08/05 00:08:00;;;;;;;6.78;4.00;;;;;;;14.23;100.00;95669.19;2065974;28;20406;-59
2023/08/05 00:09:29;;;;;;;5.70;3.45;;;;;;;14.21;100.00;95668.44;2066432;28;20402;-59
2023/08/05 00:10:31;;;;;;;5.65;3.38;;;;;;;14.22;100.00;95672.75;2065778;28;20055;-59
2023/08/05 00:11:40;;;;;;;6.03;4.35;;;;;;;14.23;100.00;95674.41;2065600;28;20438;-59
2023/08/05 00:14:25;;;;;;;7.78;3.75;;;;;;;14.22;100.00;95671.88;2045980;29;20070;-59
2023/08/05 00:15:27;;;;;;;6.40;3.92;;;;;;;14.20;100.00;95663.34;2065690;28;20054;-59
2023/08/05 00:16:29;;;;;;;7.40;4.10;;;;;;;14.19;100.00;95669.50;2066352;28;20054;-59
2023/08/05 00:17:33;;;;;;;6.32;3.58;;;;;;;14.18;100.00;95673.88;2065911;28;20490;-59
2023/08/05 00:18:44;;;;;;;4.90;3.50;;;;;;;14.15;100.00;95676.69;2066409;28;20479;-59
2023/08/05 00:19:45;;;;;;;5.85;3.72;;;;;;;14.15;100.00;95673.25;2066164;28;20375;-59
2023/08/05 00:20:55;;;;;;;6.00;3.70;;;;;;;14.12;100.00;95677.75;2065475;28;20490;-59
2023/08/05 00:22:10;;;;;;;7.45;3.90;;;;;;;14.13;100.00;95678.56;2065958;28;20514;-59
2023/08/05 00:23:17;;;;;;;5.55;3.78;;;;;;;14.16;100.00;95682.75;2065469;28;20101;-59
2023/08/05 00:24:57;;;;;;;6.93;4.22;;;;;;;14.14;100.00;95682.88;2065081;28;20062;-59
2023/08/05 00:26:00;;;;;;;6.90;4.45;;;;;;;14.15;100.00;95686.31;2066106;28;20046;-59
2023/08/05 00:27:05;;;;;;;10.77;4.40;;;;;;;14.15;100.00;95694.97;2065771;28;20541;-58
2023/08/05 00:28:12;;;;;;;7.18;5.18;;;;;;;14.14;100.00;95688.09;2066163;28;20410;-59
2023/08/05 00:29:27;;;;;;;5.75;4.70;;;;;;;14.15;100.00;95697.59;2065575;28;20058;-59
2023/08/05 00:30:56;;;;;;;8.50;4.97;;;;;;;14.19;100.00;95691.22;2066330;28;20097;-59
2023/08/05 00:32:00;;;;;;;;;;;;;;;14.18;100.00;95688.72;2065352;28;20499;-59
2023/08/05 00:33:10;;;;;;;7.65;4.82;;;;;;;14.19;100.00;95691.22;2065528;28;19917;-59
2023/08/05 00:34:26;;;;;;;6.53;4.75;;;;;;;14.19;100.00;95691.22;2065997;28;20399;-59
2023/08/05 00:35:41;;;;;;;6.70;5.13;;;;;;;14.13;100.00;95694.25;2066005;28;20073;-59
2023/08/05 00:36:43;;;;;;;7.55;4.97;;;;;;;14.15;100.00;95694.16;2066068;28;20467;-58
2023/08/05 00:38:02;;;;;;;6.38;4.38;;;;;;;14.14;100.00;95690.72;2056747;28;20554;-59
2023/08/05 00:39:04;;;;;;;6.15;4.45;;;;;;;14.11;100.00;95693.50;2057173;28;20510;-59
2023/08/05 00:40:06;;;;;;;7.30;4.95;;;;;;;14.12;100.00;95690.78;2057033;28;20058;-59
2023/08/05 00:42:40;;;;;;;6.55;4.25;;;;;;;14.15;100.00;95697.59;2061326;28;20059;-59
2023/08/05 00:43:43;;;;;;;6.05;4.65;;;;;;;14.15;100.00;95697.59;2065790;28;20054;-59
2023/08/05 00:44:45;;;;;;;7.45;4.55;;;;;;;14.11;100.00;95690.88;2057139;28;20062;-58
2023/08/05 00:45:49;;;;;;;8.60;4.85;;;;;;;14.10;100.00;95697.88;2057506;28;20086;-58
2023/08/05 00:46:53;;;;;;;6.45;4.78;;;;;;;14.06;99.92;95699.03;2066189;28;20051;-58
2023/08/05 00:48:04;;;;;;;7.00;4.65;;;;;;;14.07;99.75;95699.88;2057027;28;20051;-59
2023/08/05 00:49:07;;;;;;;7.85;5.50;;;;;;;14.06;99.81;95695.56;2042618;29;20052;-59
2023/08/05 00:50:09;;;;;;;7.20;5.47;;;;;;;14.06;99.94;95703.41;2048916;28;20431;-59
2023/08/05 00:51:20;;;;;;;6.60;4.72;;;;;;;14.07;99.98;95697.25;2049455;28;20070;-59
2023/08/05 00:52:25;;;;;;;7.28;5.13;;;;;;;14.09;100.00;95698.00;2058573;28;20066;-59
2023/08/05 00:53:30;;;;;;;8.60;4.90;;;;;;;14.11;100.00;95696.97;2057251;28;20051;-59
2023/08/05 00:54:41;;;;;;;6.22;4.88;;;;;;;14.05;100.00;95683.47;2050870;28;20416;-59
2023/08/05 00:55:44;;;;;;;7.55;5.00;;;;;;;14.08;99.80;95702.38;2058195;28;20050;-59
2023/08/05 00:56:45;;;;;;;8.25;5.25;;;;;;;14.03;100.00;95704.47;2063051;28;20061;-59
2023/08/05 00:58:35;;;;;;;;;;;;;;;;;;;;;
2023/08/05 00:59:37;;;;;;;6.32;5.10;;;;;;;13.97;100.00;95683.97;2055092;28;20054;-59
2023/08/05 01:00:45;;;;;;;6.75;5.07;;;;;;;14.02;100.00;95696.72;2057278;28;20423;-59
2023/08/05 01:02:02;;;;;;;6.05;4.30;;;;;;;14.01;100.00;95689.84;2057258;28;20054;-58
2023/08/05 01:03:03;;;;;;;6.13;4.75;;;;;;;13.99;99.84;95691.72;2057114;28;20050;-59
2023/08/05 01:04:05;;;;;;;8.23;5.05;;;;;;;14.01;100.00;95684.63;2064960;28;20066;-59
2023/08/05 01:05:06;;;;;;;6.40;5.30;;;;;;;14.00;100.00;95678.53;2065365;28;20053;-58
2023/08/05 01:06:08;;;;;;;6.28;5.05;;;;;;;13.98;100.00;95684.78;2064996;28;20050;-59
2023/08/05 01:07:20;;;;;;;6.82;5.43;;;;;;;13.95;100.00;95680.59;2055723;28;20038;-58
2023/08/05 01:08:30;;;;;;;6.30;4.45;;;;;;;13.99;100.00;95682.09;2059053;28;20430;-58
2023/08/05 01:09:36;;;;;;;7.35;5.35;;;;;;;13.92;100.00;95670.38;2063581;28;20061;-59
2023/08/05 01:10:38;;;;;;;7.35;4.95;;;;;;;14.00;100.00;95675.94;2065438;28;20054;-58
2023/08/05 01:11:45;;;;;;;6.40;4.78;;;;;;;14.01;100.00;95676.78;2057153;28;20054;-59
2023/08/05 01:13:01;;;;;;;7.07;4.93;;;;;;;14.03;100.00;95677.50;2058565;28;20053;-58
2023/08/05 01:14:09;;;;;;;8.30;5.40;;;;;;;14.03;100.00;95677.50;2065236;28;20048;-59
2023/08/05 01:15:11;;;;;;;5.95;4.85;;;;;;;14.02;100.00;95674.06;2065295;28;20054;-59
2023/08/05 01:16:13;;;;;;;8.10;5.50;;;;;;;14.01;100.00;95671.56;2065182;28;20054;-59
2023/08/05 01:17:17;;;;;;;8.75;5.50;;;;;;;14.03;100.00;95667.91;2065074;28;20058;-58
2023/08/05 01:18:19;;;;;;;5.75;4.57;;;;;;;14.04;100.00;95668.75;2065577;28;20059;-58
2023/08/05 01:19:21;;;;;;;5.78;4.70;;;;;;;14.02;100.00;95665.41;2065202;28;20062;-59
2023/08/05 01:20:26;;;;;;;7.70;4.88;;;;;;;14.04;100.00;95659.13;2065582;28;20050;-58
2023/08/05 01:21:51;;;;;;;6.18;4.80;;;;;;;14.03;100.00;95659.22;2065910;28;20126;-59
2023/08/05 01:23:14;;;;;;;6.45;4.53;;;;;;;14.06;100.00;95657.28;2065477;28;20046;-59
2023/08/05 01:24:31;;;;;;;5.68;4.60;;;;;;;14.07;100.00;95663.31;2056886;28;20565;-59
2023/08/05 01:25:53;;;;;;;8.10;5.30;;;;;;;14.04;99.69;95656.53;2044415;29;20132;-58
2023/08/05 01:27:24;;;;;;;6.10;4.85;;;;;;;14.07;100.00;95658.09;2060042;28;20046;-58
2023/08/05 01:28:35;;;;;;;6.95;4.53;;;;;;;14.05;99.88;95658.19;2056707;28;20061;-58
2023/08/05 01:30:05;;;;;;;5.50;4.30;;;;;;;14.03;100.00;95654.88;2056557;28;20053;-58
2023/08/05 01:31:19;;;;;;;;;;;;;;;14.03;100.00;95646.16;2053724;28;20049;-59
2023/08/05 01:32:24;;;;;;;7.07;4.57;;;;;;;13.94;100.00;95637.19;2051021;28;20291;-58
2023/08/05 01:33:35;;;;;;;6.57;4.50;;;;;;;14.00;100.00;95643.78;2058543;28;20063;-58
2023/08/05 01:34:41;;;;;;;6.00;4.38;;;;;;;13.96;100.00;95634.47;2056516;28;20058;-58
2023/08/05 01:35:51;;;;;;;7.38;4.82;;;;;;;13.94;100.00;95644.19;2048097;29;20055;-59
2023/08/05 01:36:53;;;;;;;7.53;5.07;;;;;;;13.95;99.81;95641.44;2051437;28;20062;-59
2023/08/05 01:38:00;;;;;;;7.10;4.97;;;;;;;13.97;99.76;95633.53;2056872;28;20101;-58
2023/08/05 01:39:13;;;;;;;;;;;;;;;13.95;99.41;95627.56;2059837;28;20070;-58
2023/08/05 01:40:18;;;;;;;6.07;4.68;;;;;;;13.92;99.82;95615.56;2065367;28;19913;-58
2023/08/05 01:41:20;;;;;;;8.63;5.15;;;;;;;13.92;99.78;95623.38;2064778;28;20050;-59
2023/08/05 01:42:24;;;;;;;6.35;5.00;;;;;;;13.86;100.00;95616.81;2056927;28;20065;-60
2023/08/05 01:43:25;;;;;;;6.57;5.40;;;;;;;13.93;100.00;95626.88;2064835;28;20050;-60
2023/08/05 01:44:27;;;;;;;7.20;5.20;;;;;;;13.92;100.00;95625.16;2064834;28;20061;-59
2023/08/05 01:45:37;;;;;;;6.60;5.15;;;;;;;13.95;99.82;95622.34;2056577;28;20106;-59
2023/08/05 01:46:39;;;;;;;5.95;4.60;;;;;;;13.95;100.00;95623.19;2057881;28;20062;-59
2023/08/05 01:47:40;;;;;;;6.15;4.47;;;;;;;13.95;100.00;95617.97;2056520;28;20070;-59
2023/08/05 01:48:42;;;;;;;7.38;5.22;;;;;;;13.92;99.81;95612.94;2057291;28;20058;-59
2023/08/05 01:49:44;;;;;;;6.65;4.97;;;;;;;13.95;100.00;95614.53;2057007;28;20055;-59
2023/08/05 01:50:45;;;;;;;7.60;5.35;;;;;;;13.93;99.92;95608.59;2056067;28;20062;-59
2023/08/05 01:51:47;;;;;;;7.30;4.63;;;;;;;13.92;99.28;95606.91;2065193;28;20069;-58
2023/08/05 01:52:53;;;;;;;6.07;4.43;;;;;;;13.95;99.71;95606.69;2055470;28;20066;-59
2023/08/05 01:53:55;;;;;;;5.38;4.13;;;;;;;13.96;98.72;95613.59;2056896;28;20055;-58
2023/08/05 01:54:56;;;;;;;8.80;4.82;;;;;;;13.97;99.19;95616.09;2065126;28;20073;-58
2023/08/05 01:55:58;;;;;;;7.88;5.07;;;;;;;13.94;99.03;95611.06;2065057;28;20046;-58
2023/08/05 01:57:08;;;;;;;6.72;4.35;;;;;;;13.97;99.29;95617.88;2056671;28;20046;-58
2023/08/05 01:58:10;;;;;;;7.10;4.80;;;;;;;13.96;99.09;95606.59;2049444;28;20499;-58
2023/08/05 01:59:35;;;;;;;7.32;4.72;;;;;;;13.98;99.14;95599.50;2049798;28;20051;-58
2023/08/05 02:00:36;;;;;;;7.68;4.75;;;;;;;13.90;98.90;95586.13;2057620;28;20054;-58
2023/08/05 02:01:47;;;;;;;7.22;4.32;;;;;;;13.93;98.71;95598.16;2064417;28;20058;-57
2023/08/05 02:03:01;;;;;;;9.25;5.68;;;;;;;13.93;98.86;95595.53;2056812;28;20055;-59
2023/08/05 02:04:03;;;;;;;11.35;5.10;;;;;;;13.94;99.12;95598.03;2057285;28;20058;-60
2023/08/05 02:05:07;;;;;;;5.32;4.43;;;;;;;13.94;99.14;95602.41;2056534;28;20050;-57
2023/08/05 02:06:10;;;;;;;5.72;4.13;;;;;;;13.94;99.06;95599.81;2057125;28;20043;-57
2023/08/05 02:07:31;;;;;;;5.32;4.40;;;;;;;13.89;99.33;95603.53;2056857;28;20053;-58
2023/08/05 02:11:51;;;;;;;6.03;4.90;;;;;;;13.89;99.39;95593.09;2065392;28;20050;-58
2023/08/05 02:13:04;;;;;;;14.18;4.88;;;;;;;13.83;99.46;95598.75;2055665;28;20054;-58
2023/08/05 02:14:09;;;;;;;5.70;4.10;;;;;;;13.83;98.99;95593.53;2050416;28;20073;-58
2023/08/05 02:15:10;;;;;;;6.15;4.85;;;;;;;13.88;99.38;95598.44;2056779;28;20043;-57
2023/08/05 02:16:15;;;;;;;6.38;4.85;;;;;;;13.88;99.35;95590.63;2065006;28;20062;-58
2023/08/05 02:17:22;;;;;;;7.70;5.30;;;;;;;13.88;98.82;95588.00;2064948;28;20058;-58
2023/08/05 02:18:26;;;;;;;7.05;4.85;;;;;;;13.86;99.12;95587.25;2064357;28;20054;-58
2023/08/05 02:19:34;;;;;;;6.18;4.90;;;;;;;13.89;99.33;95581.84;2064708;28;20061;-58
2023/08/05 02:20:39;;;;;;;8.20;5.25;;;;;;;13.90;98.66;95579.13;2056642;28;20055;-58
2023/08/05 02:21:43;;;;;;;7.82;5.53;;;;;;;13.92;98.78;95575.56;2056989;28;20046;-58
2023/08/05 02:22:44;;;;;;;7.07;5.07;;;;;;;13.85;98.83;95577.78;2065364;28;20054;-57
2023/08/05 02:23:49;;;;;;;7.90;5.22;;;;;;;13.82;99.12;95576.19;2065432;28;20066;-58
2023/08/05 02:24:51;;;;;;;6.53;4.53;;;;;;;13.78;99.15;95559.06;2065200;28;20057;-58
2023/08/05 02:25:53;;;;;;;6.82;4.30;;;;;;;13.79;98.93;95549.44;2056525;28;20053;-59
2023/08/05 02:26:55;;;;;;;5.40;4.32;;;;;;;13.78;98.83;95556.44;2056863;28;20116;-59
2023/08/05 02:28:13;;;;;;;6.68;4.70;;;;;;;13.76;99.44;95560.94;2057238;28;20050;-58
2023/08/05 02:29:40;;;;;;;8.82;5.55;;;;;;;13.74;99.33;95556.75;2064540;28;20054;-59
2023/08/05 02:31:09;;;;;;;6.40;4.85;;;;;;;13.80;98.65;95569.41;2056027;28;20057;-59
2023/08/05 02:32:43;;;;;;;8.60;4.88;;;;;;;13.81;99.53;95578.91;2058237;28;20054;-58
2023/08/05 02:34:39;;;;;;;5.90;4.30;;;;;;;13.77;99.15;95586.09;2065298;28;20058;-58
2023/08/05 02:36:08;;;;;;;6.32;5.13;;;;;;;13.79;99.58;95602.50;2065315;28;20451;-58
2023/08/05 02:37:34;;;;;;;8.70;5.53;;;;;;;13.81;99.48;95605.00;2064907;28;20517;-59
2023/08/05 02:39:24;;;;;;;7.65;5.47;;;;;;;13.83;99.59;95618.78;2065171;28;20055;-59
2023/08/05 02:42:26;;;;;;;6.53;5.07;;;;;;;13.86;99.54;95627.25;2042988;28;20043;-59
2023/08/05 02:49:38;;;;;;;7.38;5.32;;;;;;;13.89;98.81;95636.66;2009581;29;20057;-59
2023/08/05 02:54:23;;;;;;;5.75;4.03;;;;;;;13.85;98.87;95637.81;2018401;29;20061;-58
2023/08/05 02:56:03;;;;;;;7.50;5.32;;;;;;;13.87;98.67;95633.28;2024530;29;20210;-59
2023/08/05 02:58:03;;;;;;;6.03;3.92;;;;;;;13.85;98.38;95641.25;2035294;29;20064;-58
2023/08/05 02:59:13;;;;;;;5.97;4.32;;;;;;;13.88;98.42;95637.59;2032901;29;20048;-58
2023/08/05 03:00:26;;;;;;;7.85;5.10;;;;;;;13.90;98.66;95647.00;2032457;29;20105;-59
2023/08/05 03:01:46;;;;;;;7.07;5.22;;;;;;;13.92;98.55;95646.88;2032436;29;20085;-59
2023/08/05 03:03:34;;;;;;;;;;;;;;;;;;;;;
2023/08/05 03:07:29;;;;;;;8.32;5.07;;;;;;;13.87;98.34;95636.78;2063517;28;20054;-59
2023/08/05 03:08:58;;;;;;;6.18;4.80;;;;;;;13.87;98.65;95639.38;2065940;28;20050;-59
2023/08/05 03:10:30;;;;;;;7.65;4.57;;;;;;;13.87;98.52;95642.00;2057698;28;20051;-58
2023/08/05 03:11:52;;;;;;;5.82;4.57;;;;;;;13.90;98.40;95643.56;2058337;28;20070;-59
2023/08/05 03:12:57;;;;;;;7.03;4.60;;;;;;;13.85;98.24;95637.81;2045336;28;20403;-58
2023/08/05 03:13:59;;;;;;;6.28;4.40;;;;;;;13.85;97.99;95648.25;2058344;28;20121;-58
2023/08/05 03:15:06;;;;;;;7.22;4.82;;;;;;;13.84;98.35;95651.78;2057782;28;20058;-58
2023/08/05 03:16:09;;;;;;;6.38;5.32;;;;;;;13.77;98.24;95629.66;2056309;28;20098;-58
2023/08/05 03:17:12;;;;;;;6.93;4.95;;;;;;;13.83;97.86;95643.13;2065106;28;20497;-58
2023/08/05 03:18:14;;;;;;;7.32;4.80;;;;;;;13.86;97.81;95644.69;2065867;28;20081;-59
2023/08/05 03:19:15;;;;;;;7.57;4.85;;;;;;;13.83;97.10;95645.72;2057879;28;20442;-59
2023/08/05 03:20:49;;;;;;;5.97;4.20;;;;;;;13.84;97.61;95630.91;2050070;28;20442;-58
2023/08/05 03:22:39;;;;;;;6.45;4.80;;;;;;;13.84;97.50;95641.34;2062708;28;20061;-58
2023/08/05 03:23:21;;;;;;;8.90;5.32;;;;;;;13.83;97.36;95645.72;2054629;28;20050;-59
2023/08/05 03:24:29;;;;;;;5.32;4.18;;;;;;;13.83;98.11;95650.94;2058553;28;20511;-58
2023/08/05 03:25:55;;;;;;;6.30;4.70;;;;;;;13.86;98.03;95662.94;2065894;28;20383;-59
2023/08/05 03:27:05;;;;;;;6.65;4.70;;;;;;;13.87;97.60;95662.88;2055569;28;20434;-59
2023/08/05 03:28:14;;;;;;;8.35;4.10;;;;;;;13.87;97.08;95677.66;2058533;28;20422;-59
2023/08/05 03:44:46;;;;;;;6.57;4.20;;;;;;;13.64;98.11;95669.56;2060062;28;20524;-59
2023/08/05 03:46:01;;;;;;;6.90;4.07;;;;;;;13.61;98.01;95666.34;2053034;28;20408;-59
2023/08/05 03:48:53;;;;;;;5.25;4.65;;;;;;;13.70;97.95;95670.94;2055478;28;20498;-60
2023/08/05 03:50:18;;;;;;;6.10;4.65;;;;;;;13.73;97.96;95677.75;2064370;28;20046;-59
2023/08/05 03:51:22;;;;;;;5.75;4.65;;;;;;;13.67;97.63;95677.19;2057612;28;20051;-60
2023/08/05 03:52:30;;;;;;;7.70;4.20;;;;;;;13.71;97.69;95677.00;2058090;28;20067;-58
2023/08/05 03:53:47;;;;;;;5.55;4.40;;;;;;;13.72;97.84;95678.69;2065950;28;20529;-59
2023/08/05 03:54:51;;;;;;;8.40;4.68;;;;;;;13.70;96.91;95665.72;2065718;28;20475;-58
2023/08/05 03:55:53;;;;;;;5.50;4.72;;;;;;;13.73;97.37;95685.56;2056284;28;20523;-59
2023/08/05 03:57:09;;;;;;;;;;;;;;;;;;;;;
2023/08/05 03:59:02;;;;;;;7.43;5.13;;;;;;;13.74;96.65;95677.66;2057103;28;20522;-59
2023/08/05 04:00:56;;;;;;;7.72;4.43;;;;;;;13.73;97.08;95673.34;2064702;28;20053;-59
2023/08/05 04:04:07;;;;;;;5.85;4.22;;;;;;;13.72;97.31;95663.03;2046311;28;20059;-58
2023/08/05 04:05:33;;;;;;;7.50;4.63;;;;;;;13.72;96.82;95663.03;2052113;28;20553;-59
2023/08/05 04:07:09;;;;;;;9.02;5.13;;;;;;;13.72;97.00;95661.25;2053182;28;20498;-59
2023/08/05 04:08:27;;;;;;;6.82;5.57;;;;;;;13.70;96.93;95660.50;2062321;28;20537;-58
2023/08/05 04:09:29;;;;;;;7.50;5.68;;;;;;;13.72;97.38;95660.41;2065177;28;20057;-59
2023/08/05 04:10:33;;;;;;;6.43;5.10;;;;;;;13.74;96.63;95664.59;2065791;28;20042;-58
2023/08/05 04:11:37;;;;;;;7.70;4.90;;;;;;;13.75;96.67;95673.25;2065735;28;20054;-58
2023/08/05 04:12:38;;;;;;;8.48;5.63;;;;;;;13.74;96.38;95672.44;2065769;28;20058;-59
2023/08/05 04:13:59;;;;;;;6.43;4.78;;;;;;;13.70;95.96;95660.50;2056788;28;20062;-59
2023/08/05 04:15:13;;;;;;;8.25;5.90;;;;;;;13.77;96.36;95682.66;2059444;28;20107;-60
2023/08/05 04:16:23;;;;;;;6.78;4.97;;;;;;;13.80;96.15;95686.84;2056051;28;20059;-58
2023/08/05 04:17:49;;;;;;;8.30;5.57;;;;;;;13.80;95.81;95685.06;2058239;28;20051;-59
2023/08/05 04:18:58;;;;;;;12.15;6.22;;;;;;;13.82;96.23;95688.44;2025094;29;20048;-58
2023/08/05 04:20:27;;;;;;;7.55;5.60;;;;;;;13.78;95.95;95688.72;2058730;28;20043;-58
2023/08/05 04:22:20;;;;;;;7.30;5.38;;;;;;;13.82;96.10;95693.66;2066305;28;20061;-59
2023/08/05 04:23:31;;;;;;;7.80;5.57;;;;;;;13.80;96.16;95692.91;2049165;29;20055;-60
2023/08/05 04:25:07;;;;;;;9.88;5.75;;;;;;;13.71;96.20;95680.44;2063888;28;20051;-58
2023/08/05 04:26:40;;;;;;;8.57;5.97;;;;;;;13.81;96.56;95689.34;2066026;28;20054;-59
2023/08/05 04:28:00;;;;;;;8.50;6.13;;;;;;;13.76;96.06;95678.38;2066007;28;20046;-59
2023/08/05 04:29:39;;;;;;;7.68;6.00;;;;;;;13.78;96.39;95673.88;2063299;28;20403;-58
2023/08/05 04:30:48;;;;;;;9.02;5.75;;;;;;;13.73;95.96;95680.34;2065255;28;20053;-59
2023/08/05 04:31:53;;;;;;;11.15;6.53;;;;;;;13.71;96.10;95684.81;2065028;28;20058;-59
2023/08/05 04:32:54;;;;;;;9.00;6.25;;;;;;;13.73;96.23;95683.78;2066118;28;20046;-59
2023/08/05 04:34:12;;;;;;;7.47;5.70;;;;;;;13.72;95.87;95669.06;2066028;28;20047;-59
2023/08/05 04:35:19;;;;;;;8.48;6.10;;;;;;;13.73;95.96;95672.53;2066094;28;20042;-60
2023/08/05 04:36:21;;;;;;;9.43;5.47;;;;;;;13.75;95.87;95668.03;2065975;28;20046;-59
2023/08/05 04:37:23;;;;;;;9.43;5.55;;;;;;;13.73;95.95;95675.13;2066118;28;20059;-58
2023/08/05 04:38:24;;;;;;;10.23;6.90;;;;;;;13.74;95.84;95664.59;2065664;28;20057;-60
2023/08/05 04:39:27;;;;;;;8.57;6.15;;;;;;;13.76;95.71;95665.31;2065447;28;20418;-59
2023/08/05 04:40:40;;;;;;;9.45;6.05;;;;;;;13.72;95.91;95657.81;2065300;28;20079;-59
2023/08/05 04:42:10;;;;;;;10.93;5.78;;;;;;;13.71;95.62;95672.59;2065408;28;20109;-59
2023/08/05 04:44:19;;;;;;;9.27;5.22;;;;;;;13.70;95.60;95664.91;2065124;28;20367;-59
2023/08/05 04:45:24;;;;;;;8.23;6.63;;;;;;;13.71;95.98;95662.16;2064527;28;20053;-59
2023/08/05 04:46:27;;;;;;;7.43;5.32;;;;;;;13.69;95.73;95651.00;2063700;28;20066;-58
2023/08/05 04:47:31;;;;;;;7.78;6.40;;;;;;;13.74;95.68;95656.78;2066048;28;20050;-59
2023/08/05 04:48:33;;;;;;;8.90;5.65;;;;;;;13.76;95.50;95646.22;2065445;28;20053;-58
2023/08/05 04:52:41;;;;;;;8.10;5.63;;;;;;;13.77;95.37;95653.97;2050711;28;20062;-58
2023/08/05 04:53:43;;;;;;;8.73;5.18;;;;;;;13.78;95.55;95660.84;2066097;28;20050;-58
2023/08/05 04:54:46;;;;;;;8.55;5.93;;;;;;;13.84;95.27;95667.44;2065950;28;20046;-58
2023/08/05 04:55:48;;;;;;;7.35;5.65;;;;;;;13.82;95.25;95651.03;2065264;28;20070;-58
2023/08/05 04:56:50;;;;;;;8.05;6.13;;;;;;;13.84;95.33;95655.22;2065415;28;20053;-58
2023/08/05 04:57:55;;;;;;;8.25;5.80;;;;;;;13.87;95.35;95656.78;2065780;28;20498;-58
2023/08/05 04:58:56;;;;;;;8.90;5.95;;;;;;;13.88;95.25;95659.31;2065531;28;20045;-58
2023/08/05 05:00:01;;;;;;;8.63;6.43;;;;;;;13.89;95.06;95653.13;2065308;28;20053;-59
2023/08/05 05:01:04;;;;;;;7.90;5.45;;;;;;;13.92;94.72;95656.50;2065644;28;20053;-58
2023/08/05 05:02:11;;;;;;;8.07;5.78;;;;;;;13.94;94.80;95662.47;2065476;28;20042;-58
2023/08/05 05:03:16;;;;;;;13.23;6.40;;;;;;;13.96;94.88;95660.59;2065404;28;20071;-58
2023/08/05 05:04:18;;;;;;;8.95;5.65;;;;;;;13.95;94.39;95651.91;2065308;28;20065;-58
2023/08/05 05:05:22;;;;;;;8.48;5.97;;;;;;;13.92;94.63;95656.50;2065455;28;20054;-59
2023/08/05 05:06:24;;;;;;;9.60;6.00;;;;;;;13.95;94.77;95662.34;2065676;28;20054;-59
2023/08/05 05:07:29;;;;;;;12.35;6.85;;;;;;;13.92;94.73;95657.31;2065727;28;20054;-59
2023/08/05 05:08:31;;;;;;;9.00;6.00;;;;;;;13.97;94.31;95657.84;2065760;28;20054;-60
2023/08/05 05:09:35;;;;;;;11.70;6.32;;;;;;;13.96;94.25;95661.41;2065522;28;20046;-59
2023/08/05 05:10:37;;;;;;;9.77;6.65;;;;;;;13.96;94.79;95660.59;2065107;28;20050;-59
2023/08/05 05:11:45;;;;;;;8.85;6.35;;;;;;;13.95;94.83;95659.72;2065830;28;20050;-59
2023/08/05 05:12:57;;;;;;;10.18;7.07;;;;;;;14.00;94.65;95659.44;2065933;28;20049;-59
2023/08/05 05:13:59;;;;;;;9.80;6.97;;;;;;;13.97;94.74;95660.47;2065251;28;20046;-60
2023/08/05 05:15:04;;;;;;;8.30;5.95;;;;;;;14.03;94.35;95646.16;2065726;28;20046;-58
2023/08/05 05:16:05;;;;;;;11.43;6.47;;;;;;;14.03;95.05;95651.38;2065312;28;20046;-59
2023/08/05 05:17:16;;;;;;;9.90;6.32;;;;;;;14.07;94.53;95640.66;2064903;28;20042;-59
2023/08/05 05:18:17;;;;;;;9.13;6.18;;;;;;;14.15;93.69;95650.59;2065757;28;20051;-59
2023/08/05 05:19:26;;;;;;;9.88;6.22;;;;;;;14.11;93.40;95651.72;2065566;28;20418;-59
2023/08/05 05:20:36;;;;;;;8.23;5.60;;;;;;;14.15;93.27;95658.41;2065631;28;20055;-59
2023/08/05 05:21:43;;;;;;;8.18;5.70;;;;;;;14.19;93.38;95646.00;2065990;28;20054;-58
2023/08/05 05:22:51;;;;;;;11.15;6.00;;;;;;;14.17;92.64;95656.56;2065280;28;20050;-58
2023/08/05 05:23:56;;;;;;;8.60;6.25;;;;;;;14.23;92.84;95655.31;2065411;28;20085;-61
2023/08/05 05:25:12;;;;;;;9.32;5.50;;;;;;;14.19;92.94;95654.66;2065971;28;20042;-57
2023/08/05 05:26:24;;;;;;;8.32;5.85;;;;;;;14.24;93.16;95652.56;2065363;28;20501;-59
2023/08/05 05:27:28;;;;;;;8.48;5.57;;;;;;;14.22;92.96;95649.25;2065369;28;20053;-59
2023/08/05 05:28:47;;;;;;;9.15;5.70;;;;;;;14.33;92.83;95657.19;2056468;28;20058;-59
2023/08/05 05:30:15;;;;;;;11.00;5.78;;;;;;;14.36;92.79;95643.09;2056946;28;20051;-60
2023/08/05 05:31:43;;;;;;;8.90;5.43;;;;;;;14.33;92.16;95646.75;2065363;28;20050;-58
2023/08/05 05:32:48;;;;;;;8.43;5.25;;;;;;;14.35;91.91;95651.84;2065175;28;20073;-58
2023/08/05 05:33:53;;;;;;;8.25;5.35;;;;;;;14.38;92.78;95649.06;2064990;28;20474;-59
2023/08/05 05:35:01;;;;;;;7.47;5.38;;;;;;;14.39;92.09;95647.28;2064902;28;20053;-59
2023/08/05 05:36:11;;;;;;;8.23;4.65;;;;;;;14.40;91.43;95654.16;2065586;28;20054;-59
2023/08/05 05:37:17;;;;;;;8.75;5.88;;;;;;;14.39;91.26;95652.50;2064112;28;20050;-61
2023/08/05 05:38:18;;;;;;;7.95;6.07;;;;;;;14.40;91.58;95655.00;2065481;28;20125;-61
2023/08/05 05:39:20;;;;;;;9.05;5.80;;;;;;;14.47;90.87;95658.03;2065135;28;20062;-60
2023/08/05 05:40:30;;;;;;;10.38;6.18;;;;;;;14.43;90.75;95653.94;2065594;28;20054;-60
2023/08/05 05:41:31;;;;;;;9.27;5.50;;;;;;;14.50;90.80;95652.59;2064976;28;20053;-61
2023/08/05 05:42:33;;;;;;;8.20;5.32;;;;;;;14.47;90.97;95655.41;2064683;28;20046;-59
2023/08/05 05:43:43;;;;;;;8.68;5.50;;;;;;;14.50;90.59;95656.03;2056405;28;20050;-59
2023/08/05 05:44:50;;;;;;;6.95;5.40;;;;;;;14.61;90.03;95652.72;2058039;28;20073;-58
2023/08/05 05:46:19;;;;;;;9.50;5.30;;;;;;;14.59;89.99;95643.31;2065424;28;20051;-58
2023/08/05 05:47:20;;;;;;;7.20;4.65;;;;;;;14.54;89.99;95646.22;2064914;28;20061;-58
2023/08/05 05:48:22;;;;;;;7.15;5.80;;;;;;;14.60;89.90;95647.63;2065620;28;20077;-58
2023/08/05 05:49:23;;;;;;;7.85;5.53;;;;;;;14.54;89.84;95646.22;2064993;28;20058;-58
2023/08/05 05:50:24;;;;;;;8.30;5.57;;;;;;;14.51;90.20;95656.88;2065436;28;20046;-61
2023/08/05 05:51:26;;;;;;;10.50;5.50;;;;;;;14.52;89.84;95656.81;2065196;28;20054;-59
2023/08/05 05:52:27;;;;;;;8.50;5.30;;;;;;;14.59;89.59;95659.00;2064788;28;20058;-59
2023/08/05 05:53:28;;;;;;;8.25;6.03;;;;;;;14.62;89.34;95657.03;2065586;28;20073;-60
2023/08/05 05:54:30;;;;;;;6.70;5.25;;;;;;;14.59;89.89;95665.06;2064456;28;20050;-59
2023/08/05 05:55:37;;;;;;;8.27;5.50;;;;;;;14.49;90.21;95654.38;2065270;28;20140;-61
2023/08/05 05:56:38;;;;;;;8.35;4.63;;;;;;;14.57;89.19;95666.97;2065397;28;20058;-58
2023/08/05 05:57:40;;;;;;;9.07;5.63;;;;;;;14.57;89.51;95669.56;2064838;28;20050;-60
2023/08/05 05:58:41;;;;;;;8.32;5.63;;;;;;;14.60;88.99;95669.34;2064876;28;20058;-59
2023/08/05 05:59:43;;;;;;;10.30;5.68;;;;;;;14.71;89.69;95664.22;2064087;28;20058;-59
2023/08/05 06:00:56;;;;;;;8.40;5.57;;;;;;;14.66;88.97;95671.53;2065392;28;20046;-59
2023/08/05 06:02:12;;;;;;;9.57;5.43;;;;;;;14.66;89.56;95668.94;2065431;28;20047;-59
2023/08/05 06:03:13;;;;;;;6.93;5.40;;;;;;;14.70;88.97;95672.16;2056521;28;20122;-60
2023/08/05 06:04:34;;;;;;;7.75;4.82;;;;;;;14.74;88.68;95676.25;2057463;28;20123;-61
2023/08/05 06:05:36;;;;;;;11.57;5.80;;;;;;;14.73;88.20;95658.91;2064455;28;20532;-59
2023/08/05 06:06:40;;;;;;;6.45;4.93;;;;;;;14.81;88.15;95677.50;2064983;28;20081;-60
2023/08/05 06:07:48;;;;;;;8.10;5.93;;;;;;;14.89;87.87;95679.56;2065190;28;20054;-59
2023/08/05 06:08:49;;;;;;;5.93;4.90;;;;;;;14.92;87.42;95672.38;2064852;28;20065;-61
2023/08/05 06:10:00;;;;;;;8.05;4.90;;;;;;;14.98;87.37;95671.94;2064765;28;20051;-60
2023/08/05 06:11:13;;;;;;;7.32;5.18;;;;;;;15.06;87.63;95673.19;2065743;28;20046;-61
2023/08/05 06:12:22;;;;;;;8.52;5.22;;;;;;;15.08;86.98;95672.13;2064891;28;20058;-60
2023/08/05 06:13:24;;;;;;;9.35;5.40;;;;;;;15.00;86.89;95664.81;2065345;28;20070;-59
2023/08/05 06:14:29;;;;;;;5.97;4.63;;;;;;;14.98;86.71;95665.88;2065199;28;20061;-60